Time;durP1;ratioP1;P1;durP2;ratioP2;P2;SDS_P1;SDS_P2;PMS_P1;PMS_P2;Temp;Humidity;BMP_temperature;BMP_pressure;BME280_temperature;BME280_humidity;BME280_pressure;Samples;Min_cycle;Max_cycle;Signal;HPM_P1;HPM_P2
2023/03/26 00:00:54;;;;;;;33.88;19.50;;;;;;;14.87;86.02;99072.28;5070773;28;20334;-69
2023/03/26 00:03:21;;;;;;;23.67;14.48;;;;;;;14.78;85.84;99089.50;5071940;28;20039;-65
2023/03/26 00:05:47;;;;;;;18.73;12.13;;;;;;;14.73;84.89;99094.63;5068930;28;20036;-70
2023/03/26 00:08:14;;;;;;;13.32;9.90;;;;;;;14.73;84.34;99087.47;5071636;28;20040;-64
2023/03/26 00:10:40;;;;;;;11.02;7.90;;;;;;;14.77;84.76;99088.69;5069800;28;20518;-65
2023/03/26 00:13:06;;;;;;;10.40;8.27;;;;;;;14.83;84.26;99093.19;5069735;28;20056;-69
2023/03/26 00:15:33;;;;;;;8.63;7.72;;;;;;;14.85;84.39;99109.00;5070482;28;20115;-65
2023/03/26 00:18:02;;;;;;;11.73;8.48;;;;;;;14.79;84.69;99113.28;5071002;28;20068;-65
2023/03/26 00:20:29;;;;;;;10.38;8.77;;;;;;;14.67;85.09;99121.06;5067706;28;20123;-69
2023/03/26 00:22:55;;;;;;;13.30;9.27;;;;;;;14.60;86.23;99106.09;5070080;28;20029;-69
2023/03/26 00:25:23;;;;;;;15.48;9.60;;;;;;;14.47;86.42;99104.22;5072107;28;20035;-69
2023/03/26 00:27:49;;;;;;;14.23;9.60;;;;;;;14.29;88.31;99093.28;5069802;28;20090;-65
2023/03/26 00:30:15;;;;;;;13.07;9.10;;;;;;;14.21;88.75;99099.63;5068609;28;20032;-69
2023/03/26 00:32:41;;;;;;;14.30;9.88;;;;;;;14.12;89.47;99100.81;5070383;28;20039;-69
2023/03/26 00:35:07;;;;;;;13.43;9.68;;;;;;;14.05;89.75;99100.81;5071061;28;20043;-69
2023/03/26 00:37:32;;;;;;;11.48;9.55;;;;;;;13.95;90.54;99102.22;5074389;28;20052;-65
2023/03/26 00:40:01;;;;;;;13.80;9.68;;;;;;;13.98;90.88;99097.31;5075048;28;20364;-69
2023/03/26 00:42:27;;;;;;;13.20;9.38;;;;;;;13.97;90.81;99094.84;5074774;28;20103;-65
2023/03/26 00:44:56;;;;;;;12.00;8.70;;;;;;;13.89;91.00;99093.19;5074948;28;20044;-69
2023/03/26 00:47:26;;;;;;;12.85;9.75;;;;;;;13.88;90.80;99094.19;5073839;28;20048;-69
2023/03/26 00:49:52;;;;;;;11.95;9.10;;;;;;;13.85;91.54;99099.91;5072543;28;20055;-64
2023/03/26 00:52:18;;;;;;;11.60;9.57;;;;;;;13.80;91.86;99098.88;5074355;28;20105;-65
2023/03/26 00:54:45;;;;;;;13.00;9.35;;;;;;;13.82;92.64;99099.50;5075303;28;20064;-70
2023/03/26 00:57:12;;;;;;;13.43;10.00;;;;;;;13.82;92.40;99102.97;5073043;28;20335;-65
2023/03/26 00:59:38;;;;;;;10.82;9.30;;;;;;;13.78;93.43;99108.88;5075659;28;20032;-69
2023/03/26 01:02:04;;;;;;;12.68;9.48;;;;;;;13.83;93.36;99112.59;5074565;28;20333;-64
2023/03/26 01:04:33;;;;;;;12.18;9.98;;;;;;;13.72;94.65;99118.47;5075123;28;20037;-66
2023/03/26 01:07:09;;;;;;;14.35;9.90;;;;;;;13.61;94.79;99114.53;5073450;28;20309;-70
2023/03/26 01:09:41;;;;;;;14.10;9.93;;;;;;;13.78;93.43;99106.22;5073658;28;20069;-70
2023/03/26 01:12:11;;;;;;;21.20;15.52;;;;;;;13.82;92.80;99110.13;5073943;28;20443;-70
2023/03/26 01:14:37;;;;;;;17.48;13.10;;;;;;;13.78;92.14;99098.25;5072981;28;20047;-63
2023/03/26 01:17:05;;;;;;;15.70;11.85;;;;;;;13.85;91.40;99109.75;5074421;28;20254;-63
2023/03/26 01:20:04;;;;;;;15.20;11.85;;;;;;;13.91;91.56;99128.41;5075390;28;20040;-64
2023/03/26 01:22:30;;;;;;;17.90;12.18;;;;;;;13.48;93.61;99145.53;5072448;28;20054;-63
2023/03/26 01:24:55;;;;;;;13.88;11.13;;;;;;;13.23;95.34;99140.66;5074496;28;20183;-68
2023/03/26 01:27:32;;;;;;;16.42;12.10;;;;;;;13.32;96.67;99131.53;5072738;28;20049;-70
2023/03/26 01:30:16;;;;;;;15.73;12.02;;;;;;;13.33;96.76;99133.16;5073159;28;20227;-66
2023/03/26 01:33:13;;;;;;;15.95;11.65;;;;;;;13.17;98.66;99135.31;5073301;28;20047;-70
2023/03/26 01:35:44;;;;;;;14.90;12.80;;;;;;;13.17;98.83;99132.66;5072998;28;20364;-69
2023/03/26 01:38:31;;;;;;;17.40;12.23;;;;;;;13.40;97.81;99143.84;5073851;28;20366;-65
2023/03/26 01:41:35;;;;;;;18.50;12.60;;;;;;;13.49;96.79;99145.34;5073378;28;20277;-65
2023/03/26 01:44:34;;;;;;;18.08;12.55;;;;;;;13.60;95.57;99144.00;5029371;28;20414;-66
2023/03/26 01:47:00;;;;;;;14.98;11.63;;;;;;;13.73;94.50;99152.88;5069611;28;20044;-66
2023/03/26 01:49:27;;;;;;;14.93;11.65;;;;;;;13.79;93.99;99153.09;5072406;28;20385;-65
2023/03/26 01:51:55;;;;;;;15.25;11.13;;;;;;;13.88;93.19;99143.94;5073894;28;20032;-70
2023/03/26 01:54:25;;;;;;;13.45;10.35;;;;;;;13.88;91.92;99146.59;5073924;28;20040;-70
2023/03/26 01:57:03;;;;;;;14.55;10.95;;;;;;;13.87;92.04;99142.28;5070948;28;20208;-69
2023/03/26 01:59:40;;;;;;;15.27;10.02;;;;;;;13.89;91.72;99146.41;5072603;28;20047;-70
2023/03/26 02:02:28;;;;;;;14.48;10.38;;;;;;;13.82;91.22;99134.91;5073932;28;20044;-70
2023/03/26 02:05:06;;;;;;;15.70;10.15;;;;;;;13.87;91.27;99145.78;5073322;28;20218;-70
2023/03/26 02:07:49;;;;;;;14.50;9.93;;;;;;;13.86;90.36;99145.97;5072080;28;20047;-70
2023/03/26 02:10:46;;;;;;;11.57;8.68;;;;;;;13.86;89.21;99149.47;5074211;28;20093;-70
2023/03/26 02:13:12;;;;;;;10.90;8.68;;;;;;;13.81;88.18;99143.91;5072022;28;20302;-70
2023/03/26 02:15:57;;;;;;;12.15;8.55;;;;;;;13.78;87.96;99140.81;5071288;28;20119;-66
2023/03/26 02:18:23;;;;;;;10.07;8.15;;;;;;;13.85;87.09;99147.00;5071733;28;20071;-66
2023/03/26 02:20:52;;;;;;;11.18;8.00;;;;;;;13.89;86.08;99148.25;5071570;28;20218;-66
2023/03/26 02:23:19;;;;;;;8.85;6.20;;;;;;;13.92;84.94;99150.50;5074192;28;20049;-66
2023/03/26 02:25:45;;;;;;;7.70;6.55;;;;;;;13.90;84.21;99147.22;5070516;28;20648;-70
2023/03/26 02:28:10;;;;;;;8.13;5.70;;;;;;;13.91;82.88;99152.34;5072532;28;20044;-66
2023/03/26 02:30:36;;;;;;;7.45;6.15;;;;;;;13.96;82.46;99157.06;5073044;28;20032;-65
2023/03/26 02:33:02;;;;;;;7.60;5.82;;;;;;;14.00;81.94;99160.97;5072155;28;20060;-70
2023/03/26 02:35:28;;;;;;;7.50;5.40;;;;;;;14.01;82.06;99163.44;5073249;28;20036;-70
2023/03/26 02:37:53;;;;;;;10.02;6.65;;;;;;;14.05;82.10;99169.19;5070779;28;20329;-70
2023/03/26 02:40:21;;;;;;;7.03;5.60;;;;;;;14.19;81.03;99162.91;5071614;28;20035;-70
2023/03/26 02:42:46;;;;;;;8.23;5.82;;;;;;;14.26;80.30;99168.25;5072790;28;20095;-67
2023/03/26 02:45:12;;;;;;;6.88;5.30;;;;;;;14.31;79.53;99169.31;5073375;28;20043;-65
2023/03/26 02:47:37;;;;;;;4.93;4.30;;;;;;;14.27;78.18;99173.38;5072324;28;20334;-70
2023/03/26 02:50:03;;;;;;;7.38;4.63;;;;;;;14.28;77.26;99169.69;5072423;28;20036;-70
2023/03/26 02:52:29;;;;;;;5.70;4.47;;;;;;;14.27;76.48;99170.72;5071835;28;20040;-70
2023/03/26 02:54:55;;;;;;;5.32;4.60;;;;;;;14.23;75.84;99166.00;5071294;28;20044;-66
2023/03/26 02:57:21;;;;;;;6.47;4.47;;;;;;;14.24;75.53;99175.63;5071029;28;20044;-70
2023/03/26 02:59:49;;;;;;;4.30;3.20;;;;;;;14.16;74.53;99176.63;5071851;28;20031;-70
2023/03/26 03:02:15;;;;;;;4.93;3.10;;;;;;;14.15;73.64;99180.31;5072968;28;20357;-66
2023/03/26 03:04:41;;;;;;;2.95;2.63;;;;;;;14.09;73.16;99181.09;5069925;28;20024;-66
2023/03/26 03:07:06;;;;;;;3.85;2.83;;;;;;;14.07;72.44;99183.94;5072389;28;20301;-70
2023/03/26 03:09:33;;;;;;;2.53;2.33;;;;;;;14.04;72.07;99183.53;5070024;28;20340;-70
2023/03/26 03:11:59;;;;;;;4.13;2.53;;;;;;;13.97;71.69;99182.69;5071830;28;20329;-70
2023/03/26 03:14:24;;;;;;;4.32;2.58;;;;;;;13.90;70.79;99192.47;5072147;28;20036;-70
2023/03/26 03:16:50;;;;;;;2.45;2.20;;;;;;;13.84;70.53;99198.56;5072775;28;20075;-70
2023/03/26 03:19:15;;;;;;;2.15;1.95;;;;;;;13.84;71.22;99199.41;5070884;28;20028;-67
2023/03/26 03:21:41;;;;;;;2.75;2.10;;;;;;;13.89;71.35;99204.13;5069321;28;20259;-65
2023/03/26 03:24:07;;;;;;;3.83;2.35;;;;;;;13.90;71.47;99205.78;5072153;28;20032;-66
2023/03/26 03:26:33;;;;;;;2.92;2.15;;;;;;;13.95;71.56;99206.00;5071008;28;20418;-70
2023/03/26 03:28:58;;;;;;;2.65;1.98;;;;;;;13.97;71.08;99212.78;5070421;28;20062;-70
2023/03/26 03:31:25;;;;;;;2.80;2.10;;;;;;;13.90;71.04;99213.75;5071352;28;20094;-66
2023/03/26 03:33:51;;;;;;;2.78;2.28;;;;;;;13.85;71.57;99211.69;5069490;28;20032;-67
2023/03/26 03:36:20;;;;;;;2.45;2.00;;;;;;;13.80;71.81;99213.28;5069256;28;20043;-66
2023/03/26 03:38:47;;;;;;;2.80;2.15;;;;;;;13.74;72.00;99226.34;5071338;28;20037;-70
2023/03/26 03:41:12;;;;;;;3.05;2.20;;;;;;;13.69;72.21;99220.81;5070895;28;20032;-66
2023/03/26 03:43:38;;;;;;;2.50;2.30;;;;;;;13.63;72.36;99226.06;5071862;28;20075;-65
2023/03/26 03:46:04;;;;;;;2.30;2.10;;;;;;;13.56;72.00;99223.38;5071277;28;20242;-70
2023/03/26 03:48:29;;;;;;;3.95;2.38;;;;;;;13.50;71.93;99226.78;5069456;28;20385;-66
2023/03/26 03:50:55;;;;;;;4.13;3.25;;;;;;;13.52;71.72;99227.41;5070237;28;20146;-66
2023/03/26 03:53:24;;;;;;;7.63;4.90;;;;;;;13.55;71.45;99239.53;5071995;28;20040;-70
2023/03/26 03:55:55;;;;;;;4.30;3.05;;;;;;;13.56;70.85;99238.50;5071810;28;20044;-65
2023/03/26 03:58:22;;;;;;;3.58;2.20;;;;;;;13.65;70.41;99243.50;5070710;28;20563;-70
2023/03/26 04:00:52;;;;;;;1.73;1.63;;;;;;;13.61;70.28;99244.88;5070760;28;20039;-66
2023/03/26 04:03:19;;;;;;;2.65;1.60;;;;;;;13.58;69.90;99245.28;5072726;28;20029;-70
2023/03/26 04:05:48;;;;;;;1.60;1.35;;;;;;;13.55;69.55;99264.28;5070855;28;20066;-65
2023/03/26 04:08:16;;;;;;;1.85;1.50;;;;;;;13.53;69.38;99263.66;5071253;28;20230;-71
2023/03/26 04:10:43;;;;;;;2.80;1.30;;;;;;;13.48;69.70;99257.25;5072636;28;20028;-66
2023/03/26 04:13:11;;;;;;;1.67;1.33;;;;;;;13.44;69.81;99259.47;5074909;28;20214;-70
2023/03/26 04:15:36;;;;;;;1.40;1.30;;;;;;;13.36;70.08;99255.09;5075727;28;20056;-66
2023/03/26 04:18:02;;;;;;;1.40;1.30;;;;;;;13.35;70.21;99255.28;5073257;28;20039;-66
2023/03/26 04:20:27;;;;;;;1.40;1.30;;;;;;;13.35;69.88;99258.78;5075706;28;20040;-65
2023/03/26 04:22:53;;;;;;;2.00;1.10;;;;;;;13.34;69.49;99261.63;5075549;28;20048;-65
2023/03/26 04:25:20;;;;;;;3.08;1.60;;;;;;;13.34;69.32;99261.63;5074609;28;20218;-70
2023/03/26 04:27:46;;;;;;;1.42;1.30;;;;;;;13.31;69.01;99264.66;5075138;28;20052;-70
2023/03/26 04:30:19;;;;;;;1.30;1.20;;;;;;;13.40;68.89;99269.66;5075290;28;20153;-66
2023/03/26 04:32:45;;;;;;;1.52;1.27;;;;;;;13.42;68.48;99280.09;5073522;28;20039;-70
2023/03/26 04:35:15;;;;;;;1.50;1.08;;;;;;;13.43;68.05;99277.25;5072691;28;20036;-67
2023/03/26 04:37:43;;;;;;;2.40;1.70;;;;;;;13.09;69.37;99277.13;5077022;28;20160;-66
2023/03/26 04:40:20;;;;;;;1.52;1.27;;;;;;;13.10;69.32;99281.41;5075503;28;20231;-66
2023/03/26 04:42:46;;;;;;;3.42;1.90;;;;;;;12.95;70.84;99278.81;5074450;28;20058;-69
2023/03/26 04:45:14;;;;;;;5.47;3.70;;;;;;;13.10;69.74;99281.41;5074045;28;20043;-70
2023/03/26 04:47:39;;;;;;;1.77;1.60;;;;;;;13.11;69.81;99291.03;5075292;28;20040;-66
2023/03/26 04:50:09;;;;;;;4.15;1.80;;;;;;;13.30;69.33;99300.25;5074297;28;20098;-70
2023/03/26 04:52:36;;;;;;;4.18;1.55;;;;;;;13.20;69.87;99313.03;5073456;28;20442;-70
2023/03/26 04:55:02;;;;;;;2.63;1.77;;;;;;;13.24;69.32;99317.78;5073801;28;20349;-70
2023/03/26 04:57:44;;;;;;;3.38;1.30;;;;;;;13.17;69.71;99316.88;5075438;28;20028;-70
2023/03/26 05:00:17;;;;;;;1.42;1.05;;;;;;;13.14;69.35;99319.06;5075200;28;20327;-66
2023/03/26 05:02:42;;;;;;;1.98;1.05;;;;;;;13.27;68.38;99316.59;5074758;28;20372;-70
2023/03/26 05:05:09;;;;;;;1.17;1.08;;;;;;;13.34;67.65;99314.81;5072246;28;20056;-70
2023/03/26 05:07:35;;;;;;;1.70;1.08;;;;;;;13.48;67.42;99313.91;5074822;28;20115;-65
2023/03/26 05:10:05;;;;;;;1.50;1.10;;;;;;;13.49;67.32;99314.75;5074308;28;20032;-66
2023/03/26 05:12:30;;;;;;;1.65;1.20;;;;;;;13.65;66.73;99333.13;5074699;28;20032;-66
2023/03/26 05:14:56;;;;;;;2.10;1.60;;;;;;;13.76;66.78;99350.41;5072740;28;20034;-70
2023/03/26 05:17:23;;;;;;;1.45;1.35;;;;;;;13.95;67.23;99341.75;5074517;28;20043;-63
2023/03/26 05:19:50;;;;;;;1.60;1.25;;;;;;;14.04;66.12;99346.75;5072711;28;20034;-68
2023/03/26 05:22:16;;;;;;;3.60;1.80;;;;;;;13.99;66.60;99343.84;5072627;28;20091;-66
2023/03/26 05:24:42;;;;;;;2.20;1.23;;;;;;;14.02;66.67;99338.13;5072526;28;20100;-70
2023/03/26 05:27:08;;;;;;;3.35;1.30;;;;;;;14.09;66.65;99342.66;5073463;28;20051;-70
2023/03/26 05:29:33;;;;;;;1.58;1.48;;;;;;;14.06;67.17;99342.03;5074527;28;20679;-66
2023/03/26 05:31:58;;;;;;;2.22;1.30;;;;;;;14.09;66.60;99345.34;5073450;28;20059;-65
2023/03/26 05:34:26;;;;;;;2.45;1.35;;;;;;;14.20;66.07;99342.94;5074519;28;20036;-70
2023/03/26 05:36:51;;;;;;;1.20;1.02;;;;;;;14.31;65.71;99349.56;5071993;28;20226;-66
2023/03/26 05:39:17;;;;;;;1.73;1.23;;;;;;;14.52;65.61;99354.03;5074111;28;20032;-66
2023/03/26 05:41:42;;;;;;;1.33;1.23;;;;;;;14.71;65.00;99366.66;5072563;28;20102;-67
2023/03/26 05:44:08;;;;;;;3.17;1.17;;;;;;;14.88;64.38;99369.81;5074051;28;20024;-70
2023/03/26 05:46:33;;;;;;;1.20;1.10;;;;;;;15.01;63.80;99367.19;5072945;28;20032;-63
2023/03/26 05:48:59;;;;;;;1.50;1.20;;;;;;;15.21;63.82;99372.59;5073380;28;20378;-68
2023/03/26 05:51:24;;;;;;;3.30;1.45;;;;;;;15.23;62.65;99373.22;5072789;28;20081;-67
2023/03/26 05:53:50;;;;;;;1.42;1.13;;;;;;;15.34;62.69;99370.78;5074261;28;20315;-68
2023/03/26 05:56:15;;;;;;;1.77;1.17;;;;;;;15.34;62.61;99384.13;5074409;28;20043;-64
2023/03/26 05:58:42;;;;;;;1.65;1.00;;;;;;;15.27;62.52;99383.28;5073371;28;20228;-64
2023/03/26 06:01:15;;;;;;;1.63;1.00;;;;;;;15.54;62.33;99386.81;5073772;28;20273;-68
2023/03/26 06:03:41;;;;;;;1.20;1.00;;;;;;;15.70;61.61;99400.88;5073003;28;20040;-67
2023/03/26 06:06:15;;;;;;;1.25;1.15;;;;;;;15.81;60.82;99397.59;5074289;28;20490;-64
2023/03/26 06:08:49;;;;;;;1.85;1.20;;;;;;;15.99;60.76;99399.66;5073112;28;20146;-64
2023/03/26 06:11:17;;;;;;;1.33;1.10;;;;;;;16.03;59.81;99399.03;5073955;28;20040;-63
2023/03/26 06:13:43;;;;;;;3.03;1.45;;;;;;;16.17;58.65;99389.19;5074219;28;20038;-68
2023/03/26 06:16:10;;;;;;;1.52;1.00;;;;;;;16.35;57.81;99386.69;5070047;28;20120;-67
2023/03/26 06:18:36;;;;;;;2.97;1.42;;;;;;;16.58;56.86;99392.41;5073953;28;20033;-64
2023/03/26 06:21:02;;;;;;;1.33;1.05;;;;;;;16.60;55.27;99393.00;5073081;28;20052;-67
2023/03/26 06:23:28;;;;;;;0.75;0.73;;;;;;;16.42;55.13;99398.19;5072857;28;20174;-63
2023/03/26 06:25:53;;;;;;;1.50;0.90;;;;;;;16.68;55.04;99394.69;5072619;28;20033;-66
2023/03/26 06:28:19;;;;;;;1.90;0.80;;;;;;;16.48;53.53;99389.34;5072107;28;20290;-66
2023/03/26 06:30:44;;;;;;;1.25;1.00;;;;;;;16.57;54.94;99387.25;5072260;28;20029;-70
2023/03/26 06:33:10;;;;;;;2.88;1.40;;;;;;;16.73;55.44;99394.06;5071290;28;20024;-67
2023/03/26 06:35:35;;;;;;;3.15;1.02;;;;;;;17.08;54.42;99394.56;5073532;28;20060;-66
2023/03/26 06:38:01;;;;;;;2.05;1.00;;;;;;;17.22;53.47;99385.44;5072106;28;20041;-69
2023/03/26 06:40:27;;;;;;;1.75;0.93;;;;;;;17.38;52.23;99382.25;5071401;28;20355;-66
2023/03/26 06:42:54;;;;;;;0.82;0.80;;;;;;;17.38;51.91;99389.47;5072156;28;20081;-67
2023/03/26 06:45:20;;;;;;;1.52;0.80;;;;;;;17.35;51.27;99390.72;5073774;28;20203;-66
2023/03/26 06:47:46;;;;;;;3.17;1.20;;;;;;;17.30;50.98;99385.19;5072427;28;20530;-70
2023/03/26 06:50:12;;;;;;;1.67;1.00;;;;;;;17.27;50.89;99382.94;5072744;28;20047;-69
2023/03/26 06:52:37;;;;;;;1.42;1.02;;;;;;;17.35;52.15;99396.06;5072736;28;20064;-70
2023/03/26 06:55:05;;;;;;;1.88;1.10;;;;;;;17.49;50.20;99388.78;5071270;28;20044;-65
2023/03/26 06:57:31;;;;;;;2.63;1.40;;;;;;;17.64;51.17;99391.97;5072649;28;20045;-66
2023/03/26 06:59:57;;;;;;;2.67;0.95;;;;;;;17.69;47.92;99391.41;5072258;28;20024;-70
2023/03/26 07:02:22;;;;;;;1.67;1.10;;;;;;;17.65;47.71;99388.28;5073517;28;20073;-69
2023/03/26 07:04:47;;;;;;;2.08;0.60;;;;;;;17.54;46.44;99386.28;5071680;28;20058;-70
2023/03/26 07:07:13;;;;;;;1.88;0.85;;;;;;;17.55;46.51;99396.78;5073521;28;20372;-70
2023/03/26 07:09:38;;;;;;;2.25;0.90;;;;;;;17.65;47.32;99387.44;5068921;28;20062;-70
2023/03/26 07:12:04;;;;;;;2.35;1.40;;;;;;;17.72;46.48;99393.63;5071924;28;20373;-66
2023/03/26 07:14:31;;;;;;;1.33;1.20;;;;;;;17.78;46.90;99382.88;5066007;28;20036;-70
2023/03/26 07:16:57;;;;;;;2.80;1.23;;;;;;;17.94;47.23;99389.56;5071907;28;20044;-70
2023/03/26 07:19:23;;;;;;;2.92;1.05;;;;;;;18.12;46.92;99388.78;5070340;28;20024;-68
2023/03/26 07:21:49;;;;;;;2.20;1.15;;;;;;;18.26;45.10;99387.63;5073156;28;20081;-66
2023/03/26 07:24:15;;;;;;;7.20;1.70;;;;;;;18.29;44.54;99386.38;5069031;28;20356;-70
2023/03/26 07:26:59;;;;;;;2.40;0.90;;;;;;;18.26;42.03;99381.44;5069293;28;20024;-65
2023/03/26 07:29:42;;;;;;;2.25;1.30;;;;;;;18.19;42.40;99379.66;5071671;28;20044;-70
2023/03/26 07:32:33;;;;;;;1.23;0.88;;;;;;;18.11;41.60;99371.06;5070951;28;20049;-66
2023/03/26 07:35:14;;;;;;;1.70;0.93;;;;;;;18.25;41.55;99375.28;5070731;28;20099;-70
2023/03/26 07:38:07;;;;;;;1.55;1.02;;;;;;;18.42;41.07;99370.97;5071127;28;20107;-70
2023/03/26 07:40:45;;;;;;;0.80;0.80;;;;;;;18.46;40.42;99357.94;5071376;28;20032;-66
2023/03/26 07:43:20;;;;;;;4.10;1.05;;;;;;;18.26;39.34;99366.19;5071589;28;20458;-70
2023/03/26 07:45:45;;;;;;;2.22;0.80;;;;;;;18.34;39.77;99360.53;5069968;28;20099;-70
2023/03/26 07:48:26;;;;;;;0.77;0.75;;;;;;;18.48;40.25;99355.88;5071905;28;20044;-66
2023/03/26 07:50:55;;;;;;;1.55;0.82;;;;;;;18.68;40.57;99361.88;5072673;28;20466;-69
2023/03/26 07:53:21;;;;;;;1.77;1.10;;;;;;;18.87;40.78;99353.84;5070909;28;20029;-66
2023/03/26 07:56:05;;;;;;;1.58;0.95;;;;;;;19.11;40.62;99353.72;5070569;28;20056;-70
2023/03/26 07:58:40;;;;;;;0.77;0.77;;;;;;;19.04;38.29;99357.53;5072002;28;20040;-70
2023/03/26 08:01:43;;;;;;;3.03;0.90;;;;;;;18.97;37.45;99354.94;5072240;28;20032;-70
2023/03/26 08:04:26;;;;;;;3.25;1.08;;;;;;;19.22;38.07;99370.09;5071706;28;20354;-67
2023/03/26 08:07:23;;;;;;;1.10;0.90;;;;;;;19.10;36.41;99375.41;5071197;28;20040;-71
2023/03/26 08:09:51;;;;;;;1.33;0.80;;;;;;;19.29;37.52;99373.50;5070337;28;20556;-70
2023/03/26 08:12:22;;;;;;;2.92;0.95;;;;;;;19.26;36.44;99379.34;5071907;28;20041;-67
2023/03/26 08:15:10;;;;;;;2.15;0.93;;;;;;;19.21;37.91;99376.50;5071517;28;20402;-66
2023/03/26 08:17:43;;;;;;;2.38;1.10;;;;;;;19.18;37.47;99375.09;5071274;28;20036;-70
2023/03/26 08:20:09;;;;;;;;;;;;;;;19.31;38.89;99368.75;5072492;28;20029;-70
2023/03/26 08:22:44;;;;;;;3.30;1.20;;;;;;;19.57;37.53;99371.06;5071575;28;19924;-66
2023/03/26 08:25:19;;;;;;;2.20;1.15;;;;;;;19.49;38.18;99371.38;5071353;28;20040;-66
2023/03/26 08:28:04;;;;;;;1.58;1.17;;;;;;;19.68;38.97;99369.47;5066275;28;20044;-66
2023/03/26 08:30:30;;;;;;;1.35;1.25;;;;;;;19.65;38.26;99370.75;5071074;28;20040;-65
2023/03/26 08:32:58;;;;;;;1.77;1.10;;;;;;;19.55;36.43;99377.72;5069049;28;20231;-70
2023/03/26 08:35:26;;;;;;;2.65;1.35;;;;;;;19.54;36.89;99381.47;5069082;28;20040;-70
2023/03/26 08:37:52;;;;;;;2.15;1.23;;;;;;;19.80;38.33;99370.34;5070804;28;20047;-71
2023/03/26 08:40:58;;;;;;;1.58;1.02;;;;;;;19.89;37.47;99363.56;5070435;28;20033;-71
2023/03/26 08:43:48;;;;;;;2.60;1.25;;;;;;;19.76;38.20;99371.81;5062622;28;20056;-71
2023/03/26 08:46:16;;;;;;;1.77;1.38;;;;;;;19.74;37.35;99366.69;5069077;28;21023;-67
2023/03/26 08:49:06;;;;;;;1.08;1.02;;;;;;;19.75;37.80;99352.19;5071106;28;20033;-70
2023/03/26 08:52:08;;;;;;;1.38;1.23;;;;;;;19.82;37.84;99340.56;5069543;28;20383;-66
2023/03/26 08:54:36;;;;;;;1.83;1.40;;;;;;;19.96;37.86;99340.09;5070800;28;20100;-70
2023/03/26 08:57:02;;;;;;;4.78;1.50;;;;;;;19.98;37.06;99346.06;5069894;28;20358;-70
2023/03/26 08:59:52;;;;;;;5.30;1.63;;;;;;;20.02;36.73;99347.22;5070453;28;20063;-67
2023/03/26 09:02:29;;;;;;;1.05;0.90;;;;;;;19.94;35.30;99341.38;5072196;28;20067;-66
2023/03/26 09:05:16;;;;;;;1.23;1.02;;;;;;;20.06;36.52;99340.34;5071843;28;20270;-66
2023/03/26 09:08:03;;;;;;;1.75;1.30;;;;;;;20.14;35.65;99341.03;5072200;28;20079;-70
2023/03/26 09:10:28;;;;;;;1.10;1.00;;;;;;;20.22;35.61;99341.50;5071573;28;20188;-71
2023/03/26 09:13:23;;;;;;;1.08;0.98;;;;;;;20.17;34.44;99344.09;5074368;28;20047;-66
2023/03/26 09:15:48;;;;;;;3.20;1.10;;;;;;;20.13;34.80;99350.97;5071478;28;20047;-70
2023/03/26 09:18:32;;;;;;;4.40;1.00;;;;;;;20.23;33.95;99337.75;5071627;28;20037;-66
2023/03/26 09:21:21;;;;;;;2.05;1.55;;;;;;;20.27;34.84;99330.06;5072269;28;20044;-66
2023/03/26 09:23:58;;;;;;;1.65;1.00;;;;;;;20.41;33.98;99326.09;5072818;28;20111;-71
2023/03/26 09:26:59;;;;;;;1.48;1.10;;;;;;;20.58;33.38;99327.00;5073766;28;20036;-71
2023/03/26 09:29:40;;;;;;;2.28;1.10;;;;;;;20.67;32.71;99319.38;5050293;28;20045;-67
2023/03/26 09:32:41;;;;;;;1.80;0.98;;;;;;;20.64;31.87;99327.91;5066175;28;20045;-70
2023/03/26 09:35:23;;;;;;;1.90;1.00;;;;;;;20.61;31.30;99323.00;5064129;28;20347;-70
2023/03/26 09:37:59;;;;;;;1.73;1.15;;;;;;;20.63;33.01;99320.91;5062600;28;20128;-71
2023/03/26 09:40:37;;;;;;;2.13;0.93;;;;;;;20.63;31.08;99312.84;5063167;28;20040;-67
2023/03/26 09:43:27;;;;;;;3.58;1.10;;;;;;;20.53;31.68;99310.75;5062549;28;20029;-71
2023/03/26 09:45:55;;;;;;;1.45;0.90;;;;;;;20.51;31.60;99312.03;5065918;28;20132;-70
2023/03/26 09:49:01;;;;;;;2.55;1.00;;;;;;;20.65;31.72;99308.03;5064720;28;20052;-71
2023/03/26 09:51:45;;;;;;;1.33;0.93;;;;;;;20.66;32.28;99305.09;5002116;28;20278;-67
2023/03/26 09:54:32;;;;;;;1.02;0.80;;;;;;;20.60;31.70;99308.75;5061402;28;20045;-67
2023/03/26 09:57:05;;;;;;;3.88;1.23;;;;;;;20.56;30.92;99299.53;5065447;28;20255;-67
2023/03/26 09:59:42;;;;;;;1.85;0.93;;;;;;;20.58;31.11;99294.72;5063543;28;20047;-71
2023/03/26 10:02:29;;;;;;;1.05;0.60;;;;;;;20.50;31.16;99302.34;5061700;28;20391;-70
2023/03/26 10:05:15;;;;;;;1.48;1.38;;;;;;;20.54;30.63;99296.25;5065348;28;20040;-66
2023/03/26 10:07:59;;;;;;;1.95;0.85;;;;;;;20.68;31.77;99275.28;5061541;28;20339;-67
2023/03/26 10:10:40;;;;;;;1.77;1.33;;;;;;;20.73;29.64;99272.69;5063903;28;20174;-71
2023/03/26 10:13:24;;;;;;;1.60;1.13;;;;;;;20.73;30.55;99275.38;5062119;28;20040;-67
2023/03/26 10:16:12;;;;;;;1.23;1.08;;;;;;;20.71;29.81;99280.19;5064237;28;20064;-71
2023/03/26 10:19:03;;;;;;;1.08;0.90;;;;;;;20.72;30.00;99263.78;5062356;28;20208;-71
2023/03/26 10:22:00;;;;;;;1.48;1.27;;;;;;;20.85;30.56;99272.66;5066201;28;20041;-68
2023/03/26 10:24:38;;;;;;;0.90;0.70;;;;;;;20.87;29.78;99268.69;5060306;28;20239;-67
2023/03/26 10:27:07;;;;;;;2.13;1.30;;;;;;;20.91;29.13;99269.84;5067243;28;20078;-66
2023/03/26 10:30:09;;;;;;;2.38;1.63;;;;;;;20.94;30.15;99255.91;5064267;28;20068;-70
2023/03/26 10:32:46;;;;;;;1.50;0.80;;;;;;;20.94;28.68;99258.59;5063938;28;20041;-67
2023/03/26 10:35:24;;;;;;;0.45;0.45;;;;;;;20.82;28.45;99251.63;5063816;28;20100;-70
2023/03/26 10:38:03;;;;;;;0.90;0.60;;;;;;;20.86;29.47;99245.53;5060329;28;20044;-71
2023/03/26 10:40:54;;;;;;;1.23;0.60;;;;;;;20.88;29.05;99246.09;5062191;28;20048;-65
2023/03/26 10:43:38;;;;;;;1.10;0.65;;;;;;;20.98;29.50;99232.81;5061928;28;20043;-70
2023/03/26 10:46:03;;;;;;;;;;;;;;;21.04;28.60;99231.84;5062491;28;20032;-71
2023/03/26 10:48:53;;;;;;;0.95;0.63;;;;;;;21.00;28.42;99233.41;5064959;28;20241;-66
2023/03/26 10:51:30;;;;;;;0.82;0.73;;;;;;;21.01;28.39;99226.97;5060032;28;20056;-71
2023/03/26 10:53:59;;;;;;;0.65;0.60;;;;;;;21.02;28.20;99223.22;5059934;28;20063;-67
2023/03/26 10:56:38;;;;;;;1.73;0.90;;;;;;;21.08;29.02;99223.28;5061261;28;20036;-67
2023/03/26 10:59:11;;;;;;;0.70;0.68;;;;;;;21.13;28.10;99218.00;5060082;28;20032;-70
2023/03/26 11:01:59;;;;;;;0.95;0.90;;;;;;;21.22;27.90;99211.16;5067490;28;20044;-71
2023/03/26 11:04:49;;;;;;;2.15;0.73;;;;;;;21.27;27.29;99206.69;5088301;28;20058;-71
2023/03/26 11:07:50;;;;;;;2.55;0.50;;;;;;;21.25;26.63;99213.38;5085242;28;20234;-70
2023/03/26 11:10:27;;;;;;;0.73;0.60;;;;;;;21.23;26.79;99200.16;5086871;28;20043;-66
2023/03/26 11:12:53;;;;;;;0.55;0.52;;;;;;;21.24;27.16;99201.81;5084832;28;20330;-67
2023/03/26 11:15:26;;;;;;;2.95;0.82;;;;;;;21.33;27.47;99194.94;5082344;28;20048;-71
2023/03/26 11:17:54;;;;;;;;;;;;;;;21.34;25.29;99193.06;5090006;28;20045;-71
2023/03/26 11:20:39;;;;;;;2.72;0.70;;;;;;;21.25;25.40;99187.28;5087245;28;20290;-66
2023/03/26 11:23:13;;;;;;;1.65;0.80;;;;;;;21.20;26.07;99184.47;5076625;28;20044;-67
2023/03/26 11:25:55;;;;;;;5.40;0.80;;;;;;;21.16;26.16;99182.50;5086683;28;20047;-71
2023/03/26 11:28:42;;;;;;;1.65;0.30;;;;;;;21.14;25.09;99177.38;5086277;28;20113;-67
2023/03/26 11:31:15;;;;;;;0.43;0.43;;;;;;;21.14;26.20;99180.06;5076091;28;20103;-67
2023/03/26 11:33:48;;;;;;;1.02;0.52;;;;;;;21.16;26.53;99180.63;5088118;28;20310;-71
2023/03/26 11:36:20;;;;;;;;;;;;;;;21.03;25.69;99171.00;5081585;28;20039;-70
2023/03/26 11:38:49;;;;;;;1.08;0.60;;;;;;;21.11;27.09;99177.03;5087243;28;20094;-70
2023/03/26 11:41:22;;;;;;;0.73;0.60;;;;;;;21.13;25.33;99170.34;5084848;28;20361;-66
2023/03/26 11:43:52;;;;;;;0.65;0.57;;;;;;;21.14;26.41;99166.59;5086025;28;20099;-66
2023/03/26 11:46:21;;;;;;;0.77;0.75;;;;;;;21.10;25.99;99164.66;5081396;28;20037;-70
2023/03/26 11:48:56;;;;;;;1.58;0.73;;;;;;;21.08;27.29;99159.50;5084266;28;20335;-71
2023/03/26 11:51:54;;;;;;;2.13;0.75;;;;;;;21.12;26.45;99159.84;5083951;28;20032;-71
2023/03/26 11:54:21;;;;;;;0.88;0.70;;;;;;;21.14;25.79;99166.59;5045597;28;20045;-70
2023/03/26 11:56:54;;;;;;;0.50;0.50;;;;;;;21.16;25.01;99155.59;5084616;28;20349;-70